Time;durP1;ratioP1;P1;durP2;ratioP2;P2;SDS_P1;SDS_P2;PMS_P1;PMS_P2;Temp;Humidity;BMP_temperature;BMP_pressure;BME280_temperature;BME280_humidity;BME280_pressure;Samples;Min_cycle;Max_cycle;Signal;HPM_P1;HPM_P2
2019/08/20 00:01:22;;;;;;;3.4;1.6;;;;;;;;;;;;;
2019/08/20 00:03:45;;;;;;;4;1.6;;;;;;;;;;;;;
2019/08/20 00:06:12;;;;;;;4.6;1.7;;;;;;;;;;;;;
2019/08/20 00:08:38;;;;;;;3.3;1.5;;;;;;;;;;;;;
2019/08/20 00:11:04;;;;;;;4.3;1.5;;;;;;;;;;;;;
2019/08/20 00:13:31;;;;;;;2.8;1.5;;;;;;;;;;;;;
2019/08/20 00:15:55;;;;;;;3.5;1.8;;;;;;;;;;;;;
2019/08/20 00:18:20;;;;;;;5.3;1.5;;;;;;;;;;;;;
2019/08/20 00:20:50;;;;;;;3.8;1.7;;;;;;;;;;;;;
2019/08/20 00:23:13;;;;;;;2.6;1.5;;;;;;;;;;;;;
2019/08/20 00:25:40;;;;;;;2.8;1.5;;;;;;;;;;;;;
2019/08/20 00:28:15;;;;;;;4.8;1.7;;;;;;;;;;;;;
2019/08/20 00:30:32;;;;;;;3.4;1.7;;;;;;;;;;;;;
2019/08/20 00:32:58;;;;;;;3.1;1.6;;;;;;;;;;;;;
2019/08/20 00:35:28;;;;;;;2.3;1.5;;;;;;;;;;;;;
2019/08/20 00:37:52;;;;;;;3.4;1.8;;;;;;;;;;;;;
2019/08/20 00:40:24;;;;;;;4.4;2;;;;;;;;;;;;;
2019/08/20 00:42:52;;;;;;;3.9;1.8;;;;;;;;;;;;;
2019/08/20 00:45:18;;;;;;;5.2;1.7;;;;;;;;;;;;;
2019/08/20 00:47:53;;;;;;;3.5;1.9;;;;;;;;;;;;;
2019/08/20 00:50:18;;;;;;;4.9;2;;;;;;;;;;;;;
2019/08/20 00:52:40;;;;;;;2.9;1.8;;;;;;;;;;;;;
2019/08/20 00:55:23;;;;;;;4.9;1.9;;;;;;;;;;;;;
2019/08/20 00:57:35;;;;;;;5.1;2;;;;;;;;;;;;;
2019/08/20 01:00:11;;;;;;;3;2;;;;;;;;;;;;;
2019/08/20 01:02:21;;;;;;;3;1.9;;;;;;;;;;;;;
2019/08/20 01:04:51;;;;;;;3.2;1.7;;;;;;;;;;;;;
2019/08/20 01:07:15;;;;;;;2.2;1.6;;;;;;;;;;;;;
2019/08/20 01:09:38;;;;;;;3.6;1.7;;;;;;;;;;;;;
2019/08/20 01:12:08;;;;;;;4.2;1.7;;;;;;;;;;;;;
2019/08/20 01:14:29;;;;;;;4.3;2;;;;;;;;;;;;;
2019/08/20 01:16:57;;;;;;;4.5;1.9;;;;;;;;;;;;;
2019/08/20 01:19:23;;;;;;;4.5;2.1;;;;;;;;;;;;;
2019/08/20 01:21:56;;;;;;;2.8;1.7;;;;;;;;;;;;;
2019/08/20 01:24:27;;;;;;;4.3;1.9;;;;;;;;;;;;;
2019/08/20 01:26:52;;;;;;;3.2;1.9;;;;;;;;;;;;;
2019/08/20 01:29:23;;;;;;;3.2;2.1;;;;;;;;;;;;;
2019/08/20 01:31:46;;;;;;;4.1;1.9;;;;;;;;;;;;;
2019/08/20 01:34:13;;;;;;;5.3;2;;;;;;;;;;;;;
2019/08/20 01:36:44;;;;;;;3;2.1;;;;;;;;;;;;;
2019/08/20 01:39:12;;;;;;;3.3;2.1;;;;;;;;;;;;;
2019/08/20 01:41:38;;;;;;;3;1.9;;;;;;;;;;;;;
2019/08/20 01:44:02;;;;;;;4.6;2.2;;;;;;;;;;;;;
2019/08/20 01:46:36;;;;;;;4.4;2;;;;;;;;;;;;;
2019/08/20 01:48:59;;;;;;;4.5;2.4;;;;;;;;;;;;;
2019/08/20 01:51:29;;;;;;;3.6;2.1;;;;;;;;;;;;;
2019/08/20 01:53:50;;;;;;;6.3;2.3;;;;;;;;;;;;;
2019/08/20 01:56:16;;;;;;;4.7;2;;;;;;;;;;;;;
2019/08/20 01:58:39;;;;;;;3.1;2;;;;;;;;;;;;;
2019/08/20 02:01:14;;;;;;;3.7;2.1;;;;;;;;;;;;;
2019/08/20 02:03:36;;;;;;;3.4;1.8;;;;;;;;;;;;;
2019/08/20 02:06:03;;;;;;;3.1;1.8;;;;;;;;;;;;;
2019/08/20 02:08:31;;;;;;;3;1.8;;;;;;;;;;;;;
2019/08/20 02:10:55;;;;;;;6.1;1.9;;;;;;;;;;;;;
2019/08/20 02:13:24;;;;;;;4.4;2;;;;;;;;;;;;;
2019/08/20 02:15:55;;;;;;;2.8;1.9;;;;;;;;;;;;;
2019/08/20 02:18:38;;;;;;;3.5;1.9;;;;;;;;;;;;;
2019/08/20 02:20:52;;;;;;;3.8;2;;;;;;;;;;;;;
2019/08/20 02:23:14;;;;;;;3;1.8;;;;;;;;;;;;;
2019/08/20 02:28:01;;;;;;;7.6;2.2;;;;;;;;;;;;;
2019/08/20 02:30:26;;;;;;;2.4;2.2;;;;;;;;;;;;;
2019/08/20 02:32:53;;;;;;;4;2.1;;;;;;;;;;;;;
2019/08/20 02:35:20;;;;;;;2.7;2.1;;;;;;;;;;;;;
2019/08/20 02:37:47;;;;;;;4.2;2.1;;;;;;;;;;;;;
2019/08/20 02:40:17;;;;;;;4.6;2.2;;;;;;;;;;;;;
2019/08/20 02:42:51;;;;;;;4.6;2.1;;;;;;;;;;;;;
2019/08/20 02:45:14;;;;;;;3.4;1.9;;;;;;;;;;;;;
2019/08/20 02:47:42;;;;;;;4.4;2;;;;;;;;;;;;;
2019/08/20 02:50:07;;;;;;;4.6;2;;;;;;;;;;;;;
2019/08/20 02:52:32;;;;;;;4.7;2.4;;;;;;;;;;;;;
2019/08/20 02:54:59;;;;;;;3;1.9;;;;;;;;;;;;;
2019/08/20 02:57:22;;;;;;;2.4;2;;;;;;;;;;;;;
2019/08/20 02:59:48;;;;;;;4.2;2.5;;;;;;;;;;;;;
2019/08/20 03:02:19;;;;;;;3.5;2.2;;;;;;;;;;;;;
2019/08/20 03:04:45;;;;;;;4.5;2.3;;;;;;;;;;;;;
2019/08/20 03:07:33;;;;;;;4.7;2.1;;;;;;;;;;;;;
2019/08/20 03:09:49;;;;;;;4.8;2.4;;;;;;;;;;;;;
2019/08/20 03:12:13;;;;;;;4.1;2.1;;;;;;;;;;;;;
2019/08/20 03:14:39;;;;;;;5.6;2.3;;;;;;;;;;;;;
2019/08/20 03:17:11;;;;;;;5.1;2.3;;;;;;;;;;;;;
2019/08/20 03:22:03;;;;;;;4.3;2.1;;;;;;;;;;;;;
2019/08/20 03:24:31;;;;;;;3.8;2.2;;;;;;;;;;;;;
2019/08/20 03:26:59;;;;;;;2.9;2.2;;;;;;;;;;;;;
2019/08/20 03:29:24;;;;;;;3.5;1.8;;;;;;;;;;;;;
2019/08/20 03:31:49;;;;;;;3.6;1.8;;;;;;;;;;;;;
2019/08/20 03:34:15;;;;;;;3.8;2.1;;;;;;;;;;;;;
2019/08/20 03:36:40;;;;;;;3.6;2.1;;;;;;;;;;;;;
2019/08/20 03:39:05;;;;;;;4.1;2;;;;;;;;;;;;;
2019/08/20 03:41:32;;;;;;;2.7;1.6;;;;;;;;;;;;;
2019/08/20 03:43:57;;;;;;;2.5;1.6;;;;;;;;;;;;;
2019/08/20 03:46:20;;;;;;;4.7;1.6;;;;;;;;;;;;;
2019/08/20 03:48:46;;;;;;;2.7;1.8;;;;;;;;;;;;;
2019/08/20 03:51:10;;;;;;;2.5;1.7;;;;;;;;;;;;;
2019/08/20 03:53:39;;;;;;;2.5;1.6;;;;;;;;;;;;;
2019/08/20 03:56:03;;;;;;;2.5;1.8;;;;;;;;;;;;;
2019/08/20 03:58:29;;;;;;;2.5;1.5;;;;;;;;;;;;;
2019/08/20 04:02:39;;;;;;;2.7;1.5;;;;;;;18.56;85;941.7227;;;;
2019/08/20 04:05:09;;;;;;;3.7;1.5;;;;;;;18.58;85.37598;941.7594;;;;
2019/08/20 04:08:17;;;;;;;1.8;1.7;;;;;;;18.62;85.47559;941.7822;;;;
2019/08/20 04:10:48;;;;;;;3.1;1.4;;;;;;;18.58;83.6543;941.7086;;;;
2019/08/20 04:13:13;;;;;;;3.3;1.5;;;;;;;18.6;84.78809;941.7372;;;;
2019/08/20 04:16:17;;;;;;;1.7;1.4;;;;;;;18.71;84.48145;941.7847;;;;
2019/08/20 04:18:52;;;;;;;4.3;1.6;;;;;;;18.82;83.64258;941.85;;;;
2019/08/20 04:21:20;;;;;;;3.9;1.6;;;;;;;18.74;84.33691;941.8865;;;;
2019/08/20 04:24:02;;;;;;;2.9;1.5;;;;;;;18.66;84.84473;941.9467;;;;
2019/08/20 04:26:28;;;;;;;4.7;1.9;;;;;;;18.72;84.86816;941.9103;;;;
2019/08/20 04:28:52;;;;;;;2.5;1.8;;;;;;;18.56;85.18652;941.9581;;;;
2019/08/20 04:31:27;;;;;;;4.7;2;;;;;;;18.51;85.89648;942.0049;;;;
2019/08/20 04:34:06;;;;;;;4.5;1.8;;;;;;;18.3;86.61133;942.1036;;;;
2019/08/20 04:36:38;;;;;;;4.8;2.3;;;;;;;18.09;88;942.1014;;;;
2019/08/20 04:39:08;;;;;;;4.5;2.3;;;;;;;18.18;87.59766;941.9986;;;;
2019/08/20 04:41:36;;;;;;;4.6;2.2;;;;;;;18.04;88.24414;942.0924;;;;
2019/08/20 04:43:59;;;;;;;4.3;2.1;;;;;;;17.88;88.71289;942.0353;;;;
2019/08/20 04:46:25;;;;;;;3.7;2.2;;;;;;;18.07;87.86816;942.0936;;;;
2019/08/20 04:49:05;;;;;;;3.6;2;;;;;;;17.95;88.21484;941.9957;;;;
2019/08/20 04:54:03;;;;;;;4.2;1.9;;;;;;;18.29;87.2373;941.8949;;;;
2019/08/20 04:56:35;;;;;;;3.5;1.9;;;;;;;18.4;86.44727;941.9328;;;;
2019/08/20 04:59:10;;;;;;;3.2;1.9;;;;;;;18.16;87.08301;942.0159;;;;
2019/08/20 05:01:29;;;;;;;2.3;2;;;;;;;17.94;88.58594;942.0256;;;;
2019/08/20 05:04:44;;;;;;;3;2.1;;;;;;;18.02;88.03125;942.0762;;;;
2019/08/20 05:07:13;;;;;;;2.8;1.9;;;;;;;17.86;88.35938;942.0067;;;;
2019/08/20 05:09:50;;;;;;;3.7;2.1;;;;;;;17.97;88.60156;942.0592;;;;
2019/08/20 05:12:13;;;;;;;3.7;2;;;;;;;18.27;88.03418;942.1202;;;;
2019/08/20 05:14:46;;;;;;;3.5;2.2;;;;;;;18.47;86.94922;942.1401;;;;
2019/08/20 05:17:14;;;;;;;2.7;2.1;;;;;;;18.69;86.17578;942.1608;;;;
2019/08/20 05:19:47;;;;;;;4.4;2.4;;;;;;;18.72;86.42578;942.2427;;;;
2019/08/20 05:22:32;;;;;;;3.7;2.4;;;;;;;18.88;85.52832;942.2017;;;;
2019/08/20 05:24:58;;;;;;;3.5;2.3;;;;;;;19.02;85.14746;942.1105;;;;
2019/08/20 05:27:30;;;;;;;7;2.6;;;;;;;19.07;84.75;942.0704;;;;
2019/08/20 05:29:54;;;;;;;5.7;2.1;;;;;;;19.07;84.8877;942.1666;;;;
2019/08/20 05:34:04;;;;;;;3.5;1.7;;;;;;;19.01;84.66797;942.1147;;;;
2019/08/20 05:36:27;;;;;;;1.7;1.6;;;;;;;19.05;84.81445;942.1774;;;;
2019/08/20 05:39:01;;;;;;;3.5;1.7;;;;;;;19.24;84.45508;942.1849;;;;
2019/08/20 05:41:37;;;;;;;2.8;1.6;;;;;;;19.35;83.25293;942.1498;;;;
2019/08/20 05:44:09;;;;;;;3.1;1.6;;;;;;;19.5;82.89746;942.1588;;;;
2019/08/20 05:49:23;;;;;;;4.1;1.4;;;;;;;19.62;83.26855;942.1891;;;;
2019/08/20 05:52:11;;;;;;;3.1;1.5;;;;;;;19.6;83.03223;942.2299;;;;
2019/08/20 05:54:36;;;;;;;2.1;1.5;;;;;;;19.63;83.10742;942.2319;;;;
2019/08/20 05:57:11;;;;;;;3.3;1.8;;;;;;;19.53;83.08887;942.1775;;;;
2019/08/20 05:59:38;;;;;;;3.4;2;;;;;;;19.52;83.80957;942.2043;;;;
2019/08/20 06:02:22;;;;;;;4.4;1.9;;;;;;;19.54;83.68457;942.2455;;;;
2019/08/20 06:05:05;;;;;;;3.7;2;;;;;;;19.58;82.85254;942.2416;;;;
2019/08/20 06:07:37;;;;;;;3.5;2;;;;;;;19.72;82.78613;942.2787;;;;
2019/08/20 06:10:41;;;;;;;4;1.7;;;;;;;19.61;82.97559;942.3467;;;;
2019/08/20 06:12:37;;;;;;;4.5;2.4;;;;;;;19.57;83.83105;942.312;;;;
2019/08/20 06:15:02;;;;;;;5.1;2.3;;;;;;;19.52;83.90234;942.3611;;;;
2019/08/20 06:17:35;;;;;;;8.2;2.5;;;;;;;19.43;83.32617;942.3822;;;;
2019/08/20 06:20:07;;;;;;;6.4;2.1;;;;;;;19.29;84.19727;942.3334;;;;
2019/08/20 06:22:32;;;;;;;5.5;2.2;;;;;;;19.45;83.98242;942.2921;;;;
2019/08/20 06:25:07;;;;;;;3.3;1.9;;;;;;;19.45;83.3418;942.2767;;;;
2019/08/20 06:27:45;;;;;;;4.1;1.9;;;;;;;19.42;83.52246;942.3208;;;;
2019/08/20 06:30:18;;;;;;;2.4;2;;;;;;;19.54;83.70996;942.3237;;;;
2019/08/20 06:32:54;;;;;;;4.6;2;;;;;;;19.5;83.6084;942.3364;;;;
2019/08/20 06:35:21;;;;;;;4.7;2;;;;;;;19.46;83.11035;942.2668;;;;
2019/08/20 06:37:59;;;;;;;2.8;1.8;;;;;;;19.56;83.06055;942.1755;;;;
2019/08/20 06:40:31;;;;;;;4;1.8;;;;;;;19.68;82.6748;942.1179;;;;
2019/08/20 06:43:03;;;;;;;3.8;1.7;;;;;;;19.75;82.60645;942.1617;;;;
2019/08/20 06:45:56;;;;;;;3.3;1.6;;;;;;;19.85;82.10059;942.198;;;;
2019/08/20 06:48:38;;;;;;;2.9;1.8;;;;;;;19.92;80.83008;942.1489;;;;
2019/08/20 06:51:06;;;;;;;4.1;1.7;;;;;;;19.95;80.30859;942.2534;;;;
2019/08/20 06:53:48;;;;;;;3.6;1.8;;;;;;;19.9;81.41992;942.1615;;;;
2019/08/20 06:56:21;;;;;;;2.1;1.9;;;;;;;19.93;81.06543;942.1487;;;;
2019/08/20 06:58:49;;;;;;;3.2;1.9;;;;;;;20.04;79.54297;942.1606;;;;
2019/08/20 07:01:20;;;;;;;3.6;2;;;;;;;20.17;79.86914;942.2484;;;;
2019/08/20 07:03:57;;;;;;;3.6;2;;;;;;;20.2;79.00195;942.2452;;;;
2019/08/20 07:06:29;;;;;;;3.8;1.8;;;;;;;20.23;79.04199;942.2991;;;;
2019/08/20 07:09:12;;;;;;;2.8;1.8;;;;;;;20.32;78.54297;942.3117;;;;
2019/08/20 07:11:45;;;;;;;2.2;1.6;;;;;;;20.42;77.9082;942.3762;;;;
2019/08/20 07:14:20;;;;;;;3;2.1;;;;;;;20.43;78.09473;942.3683;;;;
2019/08/20 07:16:46;;;;;;;5.7;1.9;;;;;;;20.44;78.8457;942.38;;;;
2019/08/20 07:19:17;;;;;;;3.7;2;;;;;;;20.48;79.80957;942.3898;;;;
2019/08/20 07:21:53;;;;;;;2.3;1.9;;;;;;;20.49;78.97168;942.3362;;;;
2019/08/20 07:24:29;;;;;;;4.8;1.9;;;;;;;20.47;78.76855;942.4135;;;;
2019/08/20 07:27:15;;;;;;;3.3;1.7;;;;;;;20.42;78.08301;942.4085;;;;
2019/08/20 07:29:53;;;;;;;5.2;1.7;;;;;;;20.41;78.87402;942.4315;;;;
2019/08/20 07:32:22;;;;;;;2.9;1.8;;;;;;;20.4;78.11328;942.4727;;;;
2019/08/20 07:34:52;;;;;;;2.7;1.8;;;;;;;20.43;78.17871;942.4652;;;;
2019/08/20 07:37:32;;;;;;;2.5;1.8;;;;;;;20.4;79.9834;942.5518;;;;
2019/08/20 07:39:56;;;;;;;5.6;2;;;;;;;20.39;80.23926;942.5625;;;;
2019/08/20 07:42:26;;;;;;;4.1;1.8;;;;;;;20.11;80.00098;942.5706;;;;
2019/08/20 07:45:02;;;;;;;6.6;1.8;;;;;;;20.04;80.45313;942.5793;;;;
2019/08/20 07:47:40;;;;;;;2.4;1.6;;;;;;;19.98;80.96875;942.585;;;;
2019/08/20 07:50:11;;;;;;;3.8;1.8;;;;;;;19.86;81.23828;942.5639;;;;
2019/08/20 07:52:51;;;;;;;2.2;1.6;;;;;;;19.92;81.16895;942.6072;;;;
2019/08/20 07:55:25;;;;;;;6.1;1.8;;;;;;;19.91;82.29688;942.6511;;;;
2019/08/20 07:58:04;;;;;;;2.8;1.9;;;;;;;20.07;82.37207;942.6337;;;;
2019/08/20 08:00:31;;;;;;;2.6;1.8;;;;;;;20.12;81.77734;942.6957;;;;
2019/08/20 08:03:04;;;;;;;3.1;1.6;;;;;;;20.16;80.51172;942.6843;;;;
2019/08/20 08:05:38;;;;;;;4.2;1.9;;;;;;;20.22;80.20605;942.6767;;;;
2019/08/20 08:08:12;;;;;;;3.1;1.9;;;;;;;20.27;79.98242;942.6404;;;;
2019/08/20 08:10:52;;;;;;;7.3;1.9;;;;;;;20.43;80.33691;942.6934;;;;
2019/08/20 08:13:27;;;;;;;2.6;1.8;;;;;;;20.5;79.5791;942.6498;;;;
2019/08/20 08:16:01;;;;;;;6.3;1.7;;;;;;;20.45;79.04785;942.6516;;;;
2019/08/20 08:20:19;;;;;;;2.7;1.6;;;;;;;20.44;78.60059;942.6674;;;;
2019/08/20 08:21:10;;;;;;;2.9;1.7;;;;;;;20.58;79.66602;942.6828;;;;
2019/08/20 08:23:46;;;;;;;4.9;1.7;;;;;;;20.7;78.63477;942.7144;;;;
2019/08/20 08:26:15;;;;;;;2.9;1.7;;;;;;;20.77;79.92188;942.7112;;;;
2019/08/20 08:28:41;;;;;;;2.4;1.6;;;;;;;20.88;78.18652;942.5795;;;;
2019/08/20 08:31:14;;;;;;;4.3;1.9;;;;;;;20.98;79.49219;942.6556;;;;
2019/08/20 08:33:55;;;;;;;2.3;1.6;;;;;;;21.03;77.88574;942.705;;;;
2019/08/20 08:36:23;;;;;;;3;1.7;;;;;;;21.07;78.03613;942.6983;;;;
2019/08/20 08:38:58;;;;;;;3;1.5;;;;;;;21.15;78.03711;942.7004;;;;
2019/08/20 08:44:36;;;;;;;3.6;1.6;;;;;;;21.2;78.6084;942.9058;;;;
2019/08/20 08:47:07;;;;;;;2.4;1.6;;;;;;;21.24;79.21094;942.9645;;;;
2019/08/20 08:49:38;;;;;;;4.3;1.6;;;;;;;21.24;79.15234;942.9498;;;;
2019/08/20 08:52:18;;;;;;;1.8;1.6;;;;;;;21.24;77.01172;942.928;;;;
2019/08/20 08:54:50;;;;;;;2.4;1.6;;;;;;;21.24;76.53027;942.9992;;;;
2019/08/20 08:57:32;;;;;;;3.5;2.1;;;;;;;21.18;75.78418;942.9232;;;;
2019/08/20 08:59:58;;;;;;;3.8;2;;;;;;;21.19;76.46191;942.9029;;;;
2019/08/20 09:02:29;;;;;;;6;2.8;;;;;;;21.24;75.66406;942.9279;;;;
2019/08/20 09:05:02;;;;;;;4.4;2.3;;;;;;;21.38;77.66699;942.9709;;;;
2019/08/20 09:07:33;;;;;;;6.4;2.3;;;;;;;21.54;76.52441;942.9445;;;;
2019/08/20 09:09:59;;;;;;;6.7;3.1;;;;;;;21.6;74.35742;942.8772;;;;
2019/08/20 09:12:37;;;;;;;4.9;2.7;;;;;;;21.7;76.86719;942.8661;;;;
2019/08/20 09:15:20;;;;;;;4.9;2.4;;;;;;;21.83;74.78223;942.9158;;;;
2019/08/20 09:17:52;;;;;;;4.5;2.5;;;;;;;21.85;76.4375;942.8536;;;;
2019/08/20 09:20:19;;;;;;;5.2;2.4;;;;;;;21.84;74.05762;942.8553;;;;
2019/08/20 09:23:00;;;;;;;3.8;2.5;;;;;;;21.76;72.94238;942.9651;;;;
2019/08/20 09:25:38;;;;;;;3.5;2.3;;;;;;;21.68;73.95996;942.8439;;;;
2019/08/20 09:28:15;;;;;;;4.7;2.3;;;;;;;21.64;75.74512;942.7355;;;;
2019/08/20 09:30:51;;;;;;;4.7;2.5;;;;;;;21.61;73.72656;942.7958;;;;
2019/08/20 09:33:20;;;;;;;4.2;2.4;;;;;;;21.64;73.83691;942.832;;;;
2019/08/20 09:35:51;;;;;;;7.6;2.3;;;;;;;21.64;76.87012;942.7029;;;;
2019/08/20 09:38:22;;;;;;;4.3;2.4;;;;;;;21.46;78.38379;942.6563;;;;
2019/08/20 09:40:51;;;;;;;4.3;2.3;;;;;;;21.48;75.56543;942.7564;;;;
2019/08/20 09:43:19;;;;;;;4.8;2.4;;;;;;;21.53;77.55371;942.6838;;;;
2019/08/20 09:45:47;;;;;;;4.7;2.3;;;;;;;21.49;76.52832;942.6992;;;;
2019/08/20 09:48:20;;;;;;;3.2;2.2;;;;;;;21.54;76.33691;942.7687;;;;
2019/08/20 09:50:57;;;;;;;3.9;2.2;;;;;;;21.56;77.11328;942.7341;;;;
2019/08/20 09:53:22;;;;;;;5.7;2.3;;;;;;;21.51;77.1875;942.5934;;;;
2019/08/20 09:55:55;;;;;;;3.4;2;;;;;;;21.46;78.05566;942.6071;;;;
2019/08/20 09:58:21;;;;;;;3.8;2.1;;;;;;;21.39;76.10059;942.6367;;;;
2019/08/20 10:00:50;;;;;;;6.9;2.4;;;;;;;21.56;77.5;942.6407;;;;
2019/08/20 10:03:26;;;;;;;4.5;2.2;;;;;;;21.68;77.56738;942.5667;;;;
2019/08/20 10:05:54;;;;;;;3.6;2;;;;;;;21.76;76.14063;942.5589;;;;
2019/08/20 10:08:19;;;;;;;3.6;1.9;;;;;;;21.77;76.96191;942.5084;;;;
2019/08/20 10:10:48;;;;;;;3.1;1.7;;;;;;;21.78;77.08203;942.3929;;;;
2019/08/20 10:13:15;;;;;;;2.5;1.6;;;;;;;21.73;75.12793;942.4113;;;;
2019/08/20 10:15:54;;;;;;;2.3;1.7;;;;;;;21.82;75.87012;942.4091;;;;
2019/08/20 10:18:23;;;;;;;2.8;1.7;;;;;;;22;73.61426;942.4293;;;;
2019/08/20 10:21:13;;;;;;;3.2;1.8;;;;;;;22.07;75.37207;942.4102;;;;
2019/08/20 10:23:32;;;;;;;2.5;1.8;;;;;;;22.02;74.94336;942.3541;;;;
2019/08/20 10:26:11;;;;;;;2.4;1.5;;;;;;;22.18;72.78906;942.3403;;;;
2019/08/20 10:28:45;;;;;;;2.6;1.5;;;;;;;22.36;72.66699;942.2852;;;;
2019/08/20 10:31:28;;;;;;;2;1.5;;;;;;;22.5;70.31836;942.2465;;;;
2019/08/20 10:33:51;;;;;;;3;1.4;;;;;;;22.64;71.28027;942.2367;;;;
2019/08/20 10:36:22;;;;;;;2;1.5;;;;;;;22.74;69.00586;942.3214;;;;
2019/08/20 10:38:56;;;;;;;2.3;1.4;;;;;;;22.73;70.88379;942.4019;;;;
2019/08/20 10:41:29;;;;;;;3.2;1.7;;;;;;;22.52;73.85352;942.3887;;;;
2019/08/20 10:44:03;;;;;;;2.4;1.7;;;;;;;22.56;73.14355;942.2844;;;;
2019/08/20 10:46:31;;;;;;;1.7;1.6;;;;;;;22.57;73.4043;942.1451;;;;
2019/08/20 10:48:58;;;;;;;2.6;1.5;;;;;;;22.66;71.90527;942.1443;;;;
2019/08/20 10:51:28;;;;;;;2.4;1.7;;;;;;;22.81;71.55273;942.1527;;;;
2019/08/20 10:54:13;;;;;;;2.9;2.2;;;;;;;22.91;72.11035;942.1183;;;;
2019/08/20 10:56:47;;;;;;;4.5;2.4;;;;;;;23.11;71.07324;942.0886;;;;
2019/08/20 10:59:21;;;;;;;3.7;2.2;;;;;;;22.85;75.06152;942.0195;;;;
2019/08/20 11:01:51;;;;;;;3.7;1.9;;;;;;;22.91;70.93652;942.0218;;;;
2019/08/20 11:04:20;;;;;;;2.8;2;;;;;;;22.96;71.29688;941.9852;;;;
2019/08/20 11:06:52;;;;;;;4.6;1.9;;;;;;;22.98;69.99609;942.0284;;;;
2019/08/20 11:09:42;;;;;;;3.5;1.7;;;;;;;23.06;70.19727;942.0536;;;;
2019/08/20 11:12:02;;;;;;;5.7;2.1;;;;;;;22.76;72.43848;942.017;;;;
2019/08/20 11:14:38;;;;;;;4.4;2;;;;;;;22.75;69.2666;942.0295;;;;
2019/08/20 11:17:12;;;;;;;1.8;1.2;;;;;;;22.81;68.39551;942.0366;;;;
2019/08/20 11:19:42;;;;;;;1.9;1.4;;;;;;;22.66;71.31836;942.0542;;;;
2019/08/20 11:22:09;;;;;;;2.9;1.6;;;;;;;22.57;74.27148;942.0122;;;;
2019/08/20 11:24:47;;;;;;;2.5;1.5;;;;;;;22.54;71.30957;942.0528;;;;
2019/08/20 11:27:11;;;;;;;2;1.6;;;;;;;22.29;74.00488;942.068;;;;
2019/08/20 11:29:40;;;;;;;3.7;1.6;;;;;;;22.34;73.40137;942.0246;;;;
2019/08/20 11:32:22;;;;;;;2.2;1.6;;;;;;;22.23;72.85547;942.0383;;;;
2019/08/20 11:34:55;;;;;;;3.8;2.5;;;;;;;22.35;73.98926;942.0405;;;;
2019/08/20 11:37:38;;;;;;;3.2;2.3;;;;;;;22.14;76.3457;942.0772;;;;
2019/08/20 11:40:27;;;;;;;4.8;2.9;;;;;;;22;77.48145;942.1203;;;;
2019/08/20 11:42:44;;;;;;;4.2;3;;;;;;;21.91;76.91699;942.1958;;;;
2019/08/20 11:45:14;;;;;;;5.2;3.3;;;;;;;21.96;78.20313;942.1133;;;;
2019/08/20 11:47:46;;;;;;;3.5;3.2;;;;;;;21.84;76.55273;942.1889;;;;
2019/08/20 11:50:33;;;;;;;4.1;2.5;;;;;;;21.75;75.86914;942.1885;;;;
2019/08/20 11:53:11;;;;;;;3.2;2.6;;;;;;;21.88;76.17383;942.2015;;;;
2019/08/20 11:55:45;;;;;;;3.7;2.4;;;;;;;22.04;75.7793;942.1576;;;;
2019/08/20 11:58:19;;;;;;;3.3;2.3;;;;;;;22.16;76.08105;942.0074;;;;
2019/08/20 12:00:51;;;;;;;2.5;2.1;;;;;;;22.21;77.35352;941.9933;;;;
2019/08/20 12:03:35;;;;;;;4;2.5;;;;;;;22.59;76.0127;941.8629;;;;
2019/08/20 12:06:02;;;;;;;3.4;1.8;;;;;;;22.57;75.11914;941.8975;;;;
2019/08/20 12:08:36;;;;;;;4;2;;;;;;;22.63;75.17578;941.913;;;;
2019/08/20 12:11:24;;;;;;;2.9;1.9;;;;;;;22.57;74.0166;941.8683;;;;
2019/08/20 12:13:45;;;;;;;2.3;1.8;;;;;;;22.41;74.91504;941.8632;;;;
2019/08/20 12:16:49;;;;;;;3.5;2;;;;;;;22.15;76.31445;941.878;;;;
2019/08/20 12:19:09;;;;;;;2.7;1.9;;;;;;;22.44;74.81348;941.9293;;;;
2019/08/20 12:21:59;;;;;;;2.5;2;;;;;;;22.48;75.19629;941.936;;;;
2019/08/20 12:24:24;;;;;;;2.6;1.9;;;;;;;22.39;74.36035;942.0125;;;;
2019/08/20 12:26:48;;;;;;;2;1.9;;;;;;;22.48;74.61035;941.988;;;;
2019/08/20 12:29:28;;;;;;;2.2;2;;;;;;;22.7;74.91797;941.9344;;;;
2019/08/20 12:31:56;;;;;;;3.5;2;;;;;;;22.72;73.80566;941.9084;;;;
2019/08/20 12:37:13;;;;;;;3;2.3;;;;;;;22.47;75.34766;941.8658;;;;
2019/08/20 12:39:51;;;;;;;4.7;2.2;;;;;;;22.48;75.25488;941.8233;;;;
2019/08/20 12:42:19;;;;;;;3.1;2.1;;;;;;;22.46;75.79199;941.8075;;;;
2019/08/20 12:44:59;;;;;;;2.4;2.1;;;;;;;22.31;75.81445;941.8792;;;;
2019/08/20 12:50:13;;;;;;;2.6;1.9;;;;;;;22.52;74.74512;941.7223;;;;
2019/08/20 12:53:13;;;;;;;2.5;1.9;;;;;;;22.61;75.39551;941.7322;;;;
2019/08/20 12:55:30;;;;;;;2.2;2;;;;;;;22.79;74.74414;941.6765;;;;
2019/08/20 12:58:02;;;;;;;3.3;1.9;;;;;;;22.95;74.25293;941.6298;;;;
2019/08/20 13:00:40;;;;;;;1.7;1.6;;;;;;;22.94;73.7832;941.6324;;;;
2019/08/20 13:03:16;;;;;;;1.9;1.6;;;;;;;22.83;73.12988;941.6314;;;;
2019/08/20 13:05:54;;;;;;;2.1;1.8;;;;;;;22.86;72.54785;941.5547;;;;
2019/08/20 13:08:33;;;;;;;4.6;2;;;;;;;22.99;71.83008;941.5381;;;;
2019/08/20 13:11:08;;;;;;;2.3;1.6;;;;;;;23.04;71.66113;941.567;;;;
2019/08/20 13:13:39;;;;;;;2.2;1.8;;;;;;;22.96;72.20215;941.5481;;;;
2019/08/20 13:16:06;;;;;;;1.7;1.5;;;;;;;22.87;71.76172;941.5667;;;;
2019/08/20 13:18:38;;;;;;;1.6;1.5;;;;;;;22.81;71.50781;941.5995;;;;
2019/08/20 13:21:21;;;;;;;1.6;1.3;;;;;;;22.77;73.0752;941.6016;;;;
2019/08/20 13:23:43;;;;;;;2.9;1.5;;;;;;;22.87;72.45703;941.5656;;;;
2019/08/20 13:26:15;;;;;;;2.4;1.6;;;;;;;22.85;74.0957;941.5982;;;;
2019/08/20 13:28:48;;;;;;;1.9;1.6;;;;;;;22.78;72.39551;941.6792;;;;
2019/08/20 13:31:19;;;;;;;1.8;1.4;;;;;;;22.85;71.27832;941.6898;;;;
2019/08/20 13:33:58;;;;;;;3.7;1.6;;;;;;;22.67;72.04785;941.7363;;;;
2019/08/20 13:36:43;;;;;;;3.6;1.5;;;;;;;22.76;72.40332;941.7798;;;;
2019/08/20 13:40:15;;;;;;;1.7;1.6;;;;;;;22.51;73.76953;941.7955;;;;
2019/08/20 13:42:54;;;;;;;3.7;1.5;;;;;;;22.6;73.70215;941.7855;;;;
2019/08/20 13:45:35;;;;;;;2.7;1.4;;;;;;;22.72;74.50879;941.8072;;;;
2019/08/20 13:48:10;;;;;;;2.4;1.6;;;;;;;22.99;72.33398;941.6829;;;;
2019/08/20 13:50:32;;;;;;;3.1;1.6;;;;;;;23.22;71.7959;941.7584;;;;
2019/08/20 13:52:56;;;;;;;1.8;1.7;;;;;;;23.15;71.85547;941.7801;;;;
2019/08/20 13:55:23;;;;;;;1.9;1.8;;;;;;;22.67;72.91602;941.7542;;;;
2019/08/20 13:58:07;;;;;;;2.8;2;;;;;;;22.85;72.6875;941.7231;;;;
2019/08/20 14:00:43;;;;;;;3.3;2;;;;;;;22.63;72.87402;941.7517;;;;
2019/08/20 14:03:18;;;;;;;1.9;1.7;;;;;;;22.8;72.98535;941.7355;;;;
2019/08/20 14:05:46;;;;;;;2.4;1.6;;;;;;;23.16;71.25684;941.74;;;;
2019/08/20 14:08:17;;;;;;;3.7;1.6;;;;;;;23.29;72.4541;941.77;;;;
2019/08/20 14:10:49;;;;;;;2.9;2.1;;;;;;;23.03;70.55566;941.9564;;;;
2019/08/20 14:13:13;;;;;;;3.7;1.9;;;;;;;22.88;72.10645;942.0867;;;;
2019/08/20 14:16:01;;;;;;;3;1.8;;;;;;;23.07;71.18359;942.1378;;;;
2019/08/20 14:18:29;;;;;;;1.7;1.6;;;;;;;22.91;71.51172;942.0478;;;;
2019/08/20 14:21:18;;;;;;;3.1;1.6;;;;;;;22.53;71.76758;941.9539;;;;
2019/08/20 14:24:17;;;;;;;3;1.5;;;;;;;22.66;71.62402;941.9667;;;;
2019/08/20 14:26:46;;;;;;;5;1.5;;;;;;;22.68;71.4873;941.8416;;;;
2019/08/20 14:29:21;;;;;;;2.7;1.7;;;;;;;22.51;73.73438;941.8273;;;;
2019/08/20 14:32:13;;;;;;;3.2;2;;;;;;;22.52;73.06738;941.9057;;;;
2019/08/20 14:34:49;;;;;;;3.5;1.9;;;;;;;22.32;73.92773;941.9722;;;;
2019/08/20 14:37:45;;;;;;;3.7;2.4;;;;;;;22.4;73.95117;942.0559;;;;
2019/08/20 14:40:11;;;;;;;3.1;1.8;;;;;;;22.24;73.77344;942.0468;;;;
2019/08/20 14:42:44;;;;;;;2.5;2;;;;;;;22.04;75.66113;942.0928;;;;
2019/08/20 14:45:20;;;;;;;4.5;2.1;;;;;;;21.7;76.17773;942.1024;;;;
2019/08/20 14:48:14;;;;;;;2.4;1.9;;;;;;;21.74;76.30176;942.1596;;;;
2019/08/20 14:50:42;;;;;;;2.1;1.9;;;;;;;21.8;76.00586;942.1775;;;;
2019/08/20 14:53:22;;;;;;;3.3;1.9;;;;;;;21.66;75.25781;942.1456;;;;
2019/08/20 14:55:50;;;;;;;1.9;1.7;;;;;;;21.6;75.41016;942.1699;;;;
2019/08/20 15:01:16;;;;;;;2.4;1.4;;;;;;;21.18;76.75488;942.2665;;;;
2019/08/20 15:03:49;;;;;;;2.4;2.2;;;;;;;21.2;76.86328;942.2222;;;;
2019/08/20 15:06:22;;;;;;;2.4;2;;;;;;;21.22;76.96191;942.2541;;;;
2019/08/20 15:08:55;;;;;;;2.3;2.1;;;;;;;21.25;76.69824;942.334;;;;
2019/08/20 15:11:37;;;;;;;3.2;1.9;;;;;;;21.12;76.18262;942.298;;;;
2019/08/20 15:13:58;;;;;;;2.1;1.8;;;;;;;21.2;76.01074;942.363;;;;
2019/08/20 15:16:24;;;;;;;2.6;1.7;;;;;;;21.2;75.74023;942.4247;;;;
2019/08/20 15:19:06;;;;;;;3;1.5;;;;;;;21.22;73.84766;942.4356;;;;
2019/08/20 15:21:49;;;;;;;3.1;1.7;;;;;;;21.06;73.27148;942.4355;;;;
2019/08/20 15:24:29;;;;;;;2.6;1.2;;;;;;;20.89;72.06348;942.4667;;;;
2019/08/20 15:27:12;;;;;;;2.4;1.2;;;;;;;20.68;72.23828;942.6373;;;;
2019/08/20 15:30:18;;;;;;;1.8;0.8;;;;;;;20.17;73.52148;942.6332;;;;
2019/08/20 15:32:46;;;;;;;3.1;0.9;;;;;;;20.05;73.3623;942.816;;;;
2019/08/20 15:35:13;;;;;;;5;1;;;;;;;19.9;73.60449;942.868;;;;
2019/08/20 15:37:45;;;;;;;0.7;0.7;;;;;;;19.7;74.08496;942.9271;;;;
2019/08/20 15:40:20;;;;;;;3.5;0.7;;;;;;;19.71;74.57617;942.9601;;;;
2019/08/20 15:42:52;;;;;;;1.8;0.8;;;;;;;19.76;73.9209;942.9825;;;;
2019/08/20 15:45:28;;;;;;;1;0.7;;;;;;;19.53;74.97656;942.9933;;;;
2019/08/20 15:48:29;;;;;;;1;0.7;;;;;;;19.25;76.12891;943.0641;;;;
2019/08/20 15:51:03;;;;;;;1.2;0.6;;;;;;;19.11;76.8877;943.1401;;;;
2019/08/20 15:53:36;;;;;;;0.8;0.7;;;;;;;19.11;76.73242;943.2299;;;;
2019/08/20 15:56:10;;;;;;;1.1;0.7;;;;;;;18.87;77.9375;943.2558;;;;
2019/08/20 15:58:39;;;;;;;1.6;0.8;;;;;;;18.81;78.52051;943.2434;;;;
2019/08/20 16:01:05;;;;;;;1.6;0.8;;;;;;;18.82;78.19531;943.2062;;;;
2019/08/20 16:03:35;;;;;;;0.9;0.7;;;;;;;18.7;78.4082;943.3539;;;;
2019/08/20 16:06:16;;;;;;;2.5;0.8;;;;;;;18.48;79.74023;943.503;;;;
2019/08/20 16:08:55;;;;;;;1.1;0.9;;;;;;;18.42;80.52148;943.6844;;;;
2019/08/20 16:11:32;;;;;;;2.4;1.2;;;;;;;18.09;81.65625;943.723;;;;
2019/08/20 16:13:58;;;;;;;2.1;1.6;;;;;;;18.28;82.31738;943.735;;;;
2019/08/20 16:16:36;;;;;;;3;1.6;;;;;;;18.42;80.41504;943.7954;;;;
2019/08/20 16:19:03;;;;;;;1.9;1.6;;;;;;;18.37;81.17383;943.9169;;;;
2019/08/20 16:21:41;;;;;;;2.7;1.2;;;;;;;18.16;81.14746;943.9722;;;;
2019/08/20 16:24:14;;;;;;;2.2;1.4;;;;;;;17.84;82.89844;944.1378;;;;
2019/08/20 16:26:36;;;;;;;1.8;1.3;;;;;;;17.76;83.76563;944.4001;;;;
2019/08/20 16:29:15;;;;;;;2.4;1.3;;;;;;;17.77;83.76758;944.5111;;;;
2019/08/20 16:32:01;;;;;;;3.1;1.6;;;;;;;17.63;84.1709;944.4008;;;;
2019/08/20 16:34:25;;;;;;;1.9;1.1;;;;;;;17.7;84.78809;944.5254;;;;
2019/08/20 16:36:47;;;;;;;1.9;0.9;;;;;;;17.82;83.71973;944.5381;;;;